LYBE Airport Information

Runway Information
Runway 12 Length 11155 ft width 148 ft
Elevation 318 ft Threshold 0 ft Heading 122
Runway 30 Length 11155 ft Width 148 ft
Elevation 335 ft Threshold 1312 ft Heading 302
Airport Frequencies
Type APP Name APP Frequency 119.1 MHZ
Type ATIS Name INFO Frequency 122.925 MHZ
Type TWR Name TWR Frequency 118.1 MHZ
Airport Navaids
Type VOR-DME Name Beograd Frequency 112300 KHZ
Type NDB Name Beograd Frequency 316 KHZ
Type NDB Name Beograd Frequency 380 KHZ
Type NDB Name Beograd Frequency 355 KHZ
Airport Weather Information & NOTAM
ADDS - METARS form results

(0859 UTC 24 July 2021)
Data provider http://aviationweather.gov/metar/data/
 
METAR text: LYBE 240830Z 27003KT 210V340 CAVOK 25/17 Q1016 NOSIG
Conditions at: LYBE (BELGRADE/SURCIN , RS) observed 0830 UTC 24 July 2021
Temperature: 25.0°C (77°F)
Dewpoint: 17.0°C (63°F) [RH = 61%]
Pressure (altimeter): 30.00 inches Hg (1016.0 mb)
Winds: from the W (270 degrees) at 3 MPH (3 knots; 1.5 m/s)
Visibility: 6 or more miles (10+ km)
Ceiling: ceiling and visibility are OK
Clouds: unknown
Weather: no significant weather observed at this time

METAR text: LYBE 240800Z 26004KT 220V300 CAVOK 25/16 Q1016 NOSIG
Conditions at: LYBE (BELGRADE/SURCIN , RS) observed 0800 UTC 24 July 2021
Temperature: 25.0°C (77°F)
Dewpoint: 16.0°C (61°F) [RH = 57%]
Pressure (altimeter): 30.00 inches Hg (1016.0 mb)
Winds: from the W (260 degrees) at 5 MPH (4 knots; 2.1 m/s)
Visibility: 6 or more miles (10+ km)
Ceiling: ceiling and visibility are OK
Clouds: unknown
Weather: no significant weather observed at this time

Forecast for: LYBE (BELGRADE/SURCIN , RS)
Text: TAF LYBE 240500Z 2406/2506 16004KT CAVOK TX31/2413Z TN19/2503Z
Forecast period: 0600 UTC 24 July 2021 to 0200 UTC 25 July 2021
Forecast type: FROM: standard forecast or significant change
Winds: from the SSE (160 degrees) at 5 MPH (4 knots; 2.1 m/s)
Visibility: 6 or more miles (10+ km)
Ceiling: unknown
Clouds: missing
Weather: no significant weather forecast for this period
Text: BECMG 2502/2504 13014KT
Forecast period: 0200 to 0600 UTC 25 July 2021
Forecast type: BECOMING: Conditions expected to become as follows by 0400 UTC 25 July 2021
Winds: from the SE (130 degrees) at 16 MPH (14 knots; 7.2 m/s)
Visibility: 6 or more miles (10+ km)
Ceiling: unknown
Clouds: missing
Weather: no significant weather forecast for this period